Terminal Aerodrome Forecast
Issued by NWS

Home | Current Version | Previous Version | Text Only | Print | Product List | Glossary On
Versions: 1 2 3 4 5 6 7 8 9 10 11 12 13 14
000
FTUS44 KEPZ 281732
TAFTCS
TAF
KTCS 281732Z 2818/2918 14012G20KT P6SM FEW060
     FM282000 06008KT P6SM FEW060
     FM290600 33008KT P6SM FEW060 SCT100=

USA.gov is the U.S. government's official web portal to all federal, state and local government web resources and services.